Race Results for
Modesto Road Race
Modesto, CA
(Event Information)
View By:
Road Race on 05/17/2009

Note: Ranking points are NOT upgrade points. An explanation of ranking points can be found here.


Men - Cat4/5 (A) - Master - 35-99

 Place Points NameCity, StateTime USAC #BibTeam
1517.94Joseph Foster   Alamo, CA00:00:00.00 286823  20 Wells Fargo Racing Team
2519.84Greg Elliott   Fremont, CA00:00:00.00 271538  15 
3521.73Richard Tabuso   Roseville, CA00:00:00.00 274439  65 Rio Strada Racing
4523.63Rod Fernandez   Dixon, CA00:00:00.00 265576  19 Davis Bike Club
5525.53Anthony Low   Lafayette, CA00:00:00.00 265991  40 Taleo Racing
6527.42Chris Callahan   Alamo, CA00:00:00.00 242571  Wells Fargo Racing Team
7529.32Steven Kirby   Santa Rosa, CA00:00:00.00 271079  34 colavita/sutterhome-norcal
8531.21Richard Nichols   Danville, CA00:00:00.00 286421  48 InfoVista Cycling Team
9533.11Michael Broz   Sacramento, CA00:00:00.00 41833  Davis Bike Club
10535.01Rick Lawton   Pleasanton, CA00:00:00.00 141309  39 Wells Fargo Racing Team
11536.90Gary Land   Santa Rosa, CA00:00:00.00 181093  37 Team Kinetic Cycles
12538.80Ludin Ruano   Livermore, CA00:00:00.00 260831  58 VSRT/LivermoreCyclery
13540.70Scott Hellam   Fresno, CA00:00:00.00 287510  30 Rubber Soul/CSC
14542.59John Fallon   Denver, CO00:00:00.00 278385  18 Wells Fargo Racing Team
15544.49Francis Goldsberry   Sacramento, CA00:00:00.00 132927  25 SGW/City Bicycle Works
16546.38Star Stevenson   Santa Rosa, CA00:00:00.00 236074  64 2 WHEEL RACING
17548.28Warren Lane   Lafayette, CA00:00:00.00 227316  38 Taleo Racing
18550.18Mark Hockridge   Granite Bay, CA00:00:00.00 269690  32 Davis Bike Club
19552.07Ross Tomita   Sacramento, CA00:00:00.00 257583  67 VSRT/Livermore Cyclery
20553.97Jason Oxford   Fresno, CA00:00:00.00 277338  52 Vapor Racing - vaporracing.com
21555.87Jeff Slaton   Davis, CA00:00:00.00 293126  63 
22557.76Rick Berry   Kingsburg, CA00:00:00.00 271131  Rubber Soul/CSC Racing Team
23559.66Michael Saba   Oakland, CA00:00:00.00 285459  61 Taleo Racing
24561.56Hendrik (Erik) Hofman   Danville, CA00:00:00.00 285592  33 InfoVista Cycling Team
25563.45Greg McCormac   Danville, CA00:00:00.00 171823  41 Wells Fargo Racing
26565.35Ryan Nickelson   Danville, CA00:00:00.00 227002  49 Wells Fargo Racing Team
27567.24David Metzinger   Livermore, CA00:00:00.00 230083  43 Now Direct
28569.14Don Brennen   Pleasanton, CA00:00:00.00 286701  InfoVista Cycling Team
29571.04Rich Rozzi   Hollywood Ca00:00:00.00 230031  57 Colavita/Sutterhome-Norcal
30572.93Victor Furr   Pleasanton, CA00:00:00.00 96225  22 Now Direct
31574.83Bob Blyth   Davis, CA00:00:00.00 266326  Davis Bike Club
32576.73Michael Boehme   Windsor, CA00:00:00.00 252576  Colavita/Sutterhome Norcal
33578.62David Dalton   Danville, CA00:00:00.00 287122  12 
34UNKNOWN RIDER   00:00:00.00  ??? -------
35582.41Mark Gardner   Lathrop, CA00:00:00.00 258953  23 goldenchain
36584.31Shawn Overholtzer   Modesto, CA00:00:00.00 229420  51 InfoVista Cycling Team
37586.21Rob Robinson   Castro Valley, CA00:00:00.00 271386  54 InfoVista Cycling Team
38588.10Russell Hands   Benicia, CA00:00:00.00 136432  27 Taleo Racing Team
39590.00Phillip Heiman   Penngrove, CA00:00:00.00 204100  28 Colavita/Sutterhome-Norcal
DNSJoshua Ballesteros   Brentwood, CA00:00:00.00 262160   Third Pillar
DNSJim Cordano   Sacramento, CA00:00:00.00 247724   Sacramento Golden Wheelmen
DNSJason Eiserich   Davis, CA00:00:00.00 256545   Davis Bike Club
DNSMatthew Esselstrom   Modesto, CA00:00:00.00 277510   Stanislaus County Bicycle Club
DNSJoseph Foster   Alamo, CA00:00:00.00 286823   Wells Fargo Racing Team
DNSDan Goldsmith   Grass Valley, CA00:00:00.00 258865   SERT/Sho-Air
DNSPaul Henderson   Livermore, CA00:00:00.00 254491   Now Direct
DNSRobert Kopitzke   Folsom, CA00:00:00.00 96397   Body Concepts
DNSMichael Kopp   San Francisco, CA00:00:00.00 286893   Taleo Racing
DNSDouglas Miglaw   Fair Oaks, CA00:00:00.00 257772   Cycling-Training.com
DNSJon Orban   Burlingame, CA00:00:00.00 240114   Third Pillar
DNSKrag Rasmussen   Castro Valley, CA00:00:00.00 197826   Eden Bicycles
DNSRobin Rolles   Sacramento , CA00:00:00.00 219331   Davis Bike Club
DNSDoug ROSE   00:00:00.00   
DNSGrant Russell   Cool, CA00:00:00.00 218611   Sacramento Golden Wheelmen
DNSMark Switters   Folsom, CA00:00:00.00 59052   Sacramento Golden Wheelmen
DNSJim Volsansky   San Ramon, CA00:00:00.00 203442   InfoVista Cycling Team
DNSBrian Agnell   Sacramento, CA00:00:00.00 180563   Rio Strada Racing
DNSErnie Perreira   Sebastopol, CA00:00:00.00 27775   team nor-cal bike sport club
DNSStefano Moro   Burlingame, CA00:00:00.00 259912   Third Pillar
DNSPatrick Logan   San Ramon, CA00:00:00.00 242583   Third Pillar
DNSSamuel Campbell   San Francisco, CA00:00:00.00 242549   Third Pillar
DNPDoug Aiken   Pleasanton, CA00:00:00.00 195391  NA
DNPNelson Carrillo   Dublin, CA00:00:00.00 289356  10 VSRT/Livermore Cyclery
DNPDave Dunkley   Clayton, CA00:00:00.00 195560  13 Wells Fargo Racing Team
DNPRobert Equi   Elk Grove, CA00:00:00.00 275297  16 Sacramento Golden Wheelmen
DNPWalter GOLDING   00:00:00.00  24 
DNPThomas Heise   Livermore, CA00:00:00.00 271843  29 Now Direct
DNPDavid Mehl   El Dorado Hills, CA00:00:00.00 290396  42 Team Kinetic Cycles
DNPChristopher Mink   Richmond, CA00:00:00.00 232894  45 Taleo Racing
DNPMark Nichols   Alamo, CA00:00:00.00 83106  47 Wells Fargo Racing
DNPJim Sallee   San Francisco, CA00:00:00.00 88987  62 Zeitgeist Racing
DNPPaul Taylor   Brentwood, CA00:00:00.00 207281  66 Metromint Cycling
DNPJames VanDyke   Pleasanton, CA00:00:00.00 286711  72 Info Vista Cycling Club

Men - Cat 4/5 (B) - Master - 35-99

 Place Points NameCity, StateTime USAC #BibTeam
1504.80Brent Majors   Clovis, CA00:00:00.00 286527  559 Rubber Soul/CSC racing Team
2507.31Rodney Spradlin   El Dorado Hills, CA 122266  520 FCI Armstrong
3509.81Mike Brunetti   Escalon, CA00:00:00.00 273437  504 NA
4512.32Reed Jackson   Sacramento, CA00:00:00.00 96947  510 Team City
5514.82Russell Voss   Tracy, CA00:00:00.00 258026  523 Now Direct
6517.33Ronald Magcauas   Vallejo, CA00:00:00.00 269823  513 Luzvimin
7519.84Guy Van Natta   Clovis, CA00:00:00.00 218823  522 Central Valley Cycling
8522.34Ken Doyle   Santa Barbara, CA00:00:00.00 9958  507 Team Chicken Ranch
9524.85Kevin Smith   Santa Rosa, CA00:00:00.00 289015  519 Team NorCal Bike Sport
10527.35James Sevey   Granite Bay, CA00:00:00.00 271525  518 Team Bicycles Plus/Sierra Neva
11529.86David Brunetti   Modesto, CA00:00:00.00 5236  503 NA
12532.36Chris Dawson   Sacramento, CA00:00:00.00 224241  505 River City Racing
13534.87Stephen Blakemore   Turlock, CA00:00:00.00 79937  566 InfoVista Cycling Team
14537.38Mitch Boehs   Livingston, CA00:00:00.00 237309  557 Stanislaus/Merlock Velo
15539.88Stefano Moro   Burlingame, CA00:00:00.00 259912  562 Third Pillar
16542.39Andrejs Adamovics   Stockton, CA00:00:00.00 65843  500 Sugar CRM
17544.89Sascha Messner   Fremont, CA00:00:00.00 280562  515 Taleo Racing
18547.40Mitch Karno   Santa Barbara, CA00:00:00.00 205902  512 Team Chicken Ranch
19549.91Jeff Watson   Elk Grove, CA00:00:00.00 293136  554 Team Bicycles Plus / Sierra Ne
20552.41Samuel Campbell   San Francisco, CA00:00:00.00 242549  564 Third Pillar
21554.92Jarrod Wyrick   Granite Bay, CA00:00:00.00 109262  551 Team Bicycles Plus/Sierra Neva
22Dean BAILEY   00:00:00.00  501 
23559.93William McBride   Santa Barbara, CA00:00:00.00 287300  514 Chicken Ranch
24562.44Eric Zagala   Pleasant Hill, CA00:00:00.00 276373  552 Luzvimin Racing
25564.94Peter Tousignant   Belmont, CA00:00:00.00 231855  565 Third Pillar
26567.45Jeff Sobul   Oakland, CA00:00:00.00 199100  558 Kaiser Permanente/ Team Oaklan
27todd ISAMAN   00:00:00.00  561 
28572.46Allen Jackson   Sonora, CA 260263   
29kevin GALOS   00:00:00.00  553 
30577.47Steve Wetzel   Folsom, CA00:00:00.00 287877  524 Bicycles Plus/Sierra Nevada
31579.98Bruce Dwelly   Folsom, CA00:00:00.00 219651  508 Team Bicycles Plus/Sierra Neva
32582.48Jeff Mittner   Folsom, CA00:00:00.00 286671  516 Bicycles Plus/Sierra Nevada
33584.99David Jurist   San Diego, CA00:00:00.00 276397  511 Team Chicken Ranch
34Brian TO   00:00:00.00  521 
35590.00Francisco Gatdula   Lodi, CA00:00:00.00 111613  509 LUZVIMIN RACING TEAM
DNSChris Becker   Orinda, CA00:00:00.00 287692   Taleo Racing
DNSRafael Neiman   Loomis, CA00:00:00.00 270869   Team Bicycles Plus/Sierra Neva
DNPChris Crabtree   Concord, CA00:00:00.00 51436  555 International Christian Cyclin
DNPRowel (Rob) Palisoc   Berkeley, CA00:00:00.00 195972  560 Kaiser Permanente/ Team Oaklan
DNPPatrick Logan   San Ramon, CA00:00:00.00 242583  563 Third Pillar
DNPJohn Tuberville   00:00:00.00  567 Luzvinmin

Men - Pro/Cat 1/2

 Place Points NameCity, StateTime USAC #BibTeam
1398.53Jeremiah Holdway   Sparks, NV00:00:00.00 55281  629 Reno Wheelmen
2405.60Chris Stastny   Vacaville, CA00:00:00.00 249743  615 Davis Bike Club
3412.68Dirk Copeland   Santa Clara, CA00:00:00.00 52843  616 California Giant Berry Farms/S
4419.75Judd Van Sickle   Sacramento, CA00:00:00.00 127052  627 Rocknasium
5426.82Carmi Schulman   Seattle, WA00:00:00.00 200292  608 Sportgenics/Squadra Ovest
6433.89Aaron Beardsley   Berkeley, CA00:00:00.00 188253  628 TEAM CLIF BAR Cycling
7440.97Darren Basso   Belmont, CA00:00:00.00 130973  621 Arete' Racing
8448.04Connor Spencer (1 - Cat2)   San Francisco, CA00:00:00.00 256539  609 Metromint Cycling
9455.11Keith Hillier   Millbrae, CA00:00:00.00 276108  605 Davis Bike Club
10462.18James Badia   Redwood City, CA00:00:00.00 200949  601 Webcor/Alto Velo
11469.25Michael Cordova   Chester, CA00:00:00.00 207547  617 Chico Corsa Cycling Team
12476.33Russell White   Lafayette, CA00:00:00.00 236024  611 Davis Bike Club
13483.40Randy Bramblett   San Francisco, CA00:00:00.00 187194  622 USA
14490.47Gregory White   Lafayette, CA00:00:00.00 246669  610 Davis Bike Club
15497.54Peter Graf (2 - Cat2)   Sacramento, CA00:00:00.00 218511  626 Unattached
16504.61Kalen Gruber   Los Altos Hills, CA00:00:00.00 49467  624 SugarCRM
17511.69David Pouncy   Piedmont, CA00:00:00.00 248071  606 Berkeley Bicycle Club (BBC)
18518.76Paul Kundrat   Belvedere, CA00:00:00.00 59561  623 Wells Fargo Racing Team
19525.83Zachary Wick   Davis, CA00:00:00.00 200743  612 Davis Bike Club
20532.90Josh Rennie   Reno, NV00:00:00.00 251736  607 Team Clif Bar
21539.98Charles Alexander   Sacramento, CA00:00:00.00 206466  600 Davis Bike Club
22547.05Mack Chew   San Francisco, CA00:00:00.00 170147  603 Arete' Racing
23554.12Brandon Correia   Alameda, CA00:00:00.00 188308  614 Godspeed Courier
24561.19Keith Miller   Los Gatos, CA00:00:00.00 53753  625 Unattached
25UNKNOWN RIDER   00:00:00.00  663 -------
26575.34Benjamin Lyon (3 - Cat2)   San Francisco, CA00:00:00.00 227794  613 Arete' Racing
27582.41Matthew Obregon   Folsom, CA00:00:00.00 232613  618 Safeway/Bicycles Plus Racing
28589.48John Bergmann (1 - Cat1)   Albany, CA00:00:00.00 187522  630 Team Clif Bar
DNSDaniel Blomgren (Cat2)   Berkeley, CA00:00:00.00 231896   Metromint Cycling on Marin Bik
DNSSassan Golafshan   Palo Alto, CA00:00:00.00 169945   Form Fitness
DNPMatthew Beebe   Redwood City, CA00:00:00.00 205076  619 Webcor/Alto Velo
DNPLee Shuemake   Sonora, CA00:00:00.00 197770  620 Delta Velo

Men - Cat 1/2/3 - Master - 35-99

 Place Points NameCity, StateTime USAC #BibTeam
1428.69David Del Rosso   Dublin, CA00:00:00.00 187432  863 HDR p/b Lombardi Sports
2433.30Richard Bradley   Sacramento, CA00:00:00.00 223944  857 EMC2-Felt
3437.90Gregory Anderson   Vacaville, CA00:00:00.00 90802  890 Morgan Stanley/Team Spine/Spec
4442.51Matthew Ream   Verdi, NV00:00:00.00 211441  879 VOS-Cycles Gladiator
5447.12John Trefethen   Danville, CA00:00:00.00 212376  878 International Christian Cyclin
6451.73Gregg Betonte   Truckee, CA00:00:00.00 255414  856 Safeway / Bicycles Plus
7456.34Shaun Bagley   Visalia, CA00:00:00.00 60730  855 Sierra Pacific Racing
9460.95Andrew Lancashire   Elk Grove, CA00:00:00.00 218734  872 Zenn Racing
10465.56Andrew Kennedy   Martinez, CA00:00:00.00 257276  869 Team Hammer Nutrition p/b Kenn
11470.17Rob Cady   Elk Grove, CA00:00:00.00 49774  860 Zenn Racing Team
12474.78Chris Courtney   Oakdale, CA00:00:00.00 47303  862 Unattached
13479.38Robert Winder   Lafayette, CA00:00:00.00 220285  884 HDR p/b Lombardi Sports
14483.99Brett Park   San Rafael, CA00:00:00.00 134639  876 Arete' Racing
15488.60Richard Brockie   San Jose, CA00:00:00.00 195395  858 Team Integrate/FFBC powered by
16493.21Peter Allen   Fair Oaks, CA00:00:00.00 46996  854 Safeway / Bicycles Plus
17497.82Jonathan Laine   Truckee, CA00:00:00.00 256153  871 Safeway/Bicycles Plus
18UNKNOWN RIDER   00:00:00.00  ??? -------
19507.04Chris Ott   San Jose, CA00:00:00.00 26920  875 Unattached
20511.65Alex Holtz   Sacramento, CA00:00:00.00 61440  866 EMC2-FELT
21516.26Matt Kramer   Los Gatos, CA00:00:00.00 183871  880 VOS-Cycles Gladiator
22520.87Stephen McCaw   Sacramento, CA00:00:00.00 62322  892 Armstrong & Associates / FCI C
23525.47Michael Camarena   Lindsay, CA00:00:00.00 47386  861 Yokohl Ranch/Sierra Bicycle We
24530.08Todd Reeves   Bakersfield, CA00:00:00.00 51654  893 AIAGE Cycling Club
25534.69Stephen Janke   Davis, CA00:00:00.00 188217  888 Rocknasium
26539.30Scott Derdenger   Benicia, CA00:00:00.00 55123  882 HDR p/b Lombardi Sports
27543.91Scott Fonseca   Fair Oaks, CA00:00:00.00 204715  864 Zenn Racing Team
28548.52Charles Pockell-Wilson   Martinez Ca00:00:00.00 52696  885 Morgan Stanley/Team Spine/Spec
29553.13Chris Carscadden   Walnut Creek, CA00:00:00.00 165751  883 HDR p/b Lombardi Sports
30557.74Mike Kelly   Rio Linda, CA00:00:00.00 138145  868 Zenn Cycling Team
31562.35Jason Brown   Lodi, CA00:00:00.00 53115  859 VOS-Cycles Gladiator
32566.96Todd Kohli   San Francisco, CA00:00:00.00 198414  870 Arete' Racing
33571.56Fred Ramos   Davis, CA00:00:00.00 195221  895 Zenn Racing Team
34576.17Anthony Merriett   Redwood City, CA00:00:00.00 61305  881 Davis Bike Club
35580.78Jess Raphael   Napa, CA00:00:00.00 221460  894 Safeway/Bicycles Plus Racing
36585.39Justin Morgan   Portola Valley, CA00:00:00.00 25053  873 VOS-Cycles Gladiator
37590.00Kristopher Spyrka   Alamo, CA00:00:00.00 207144  877 Taleo Racing
DNSBrian Hitchman   Folsom, CA00:00:00.00 48419   Rio Strada Racing
DNSAaron Hunter   Santa Cruz, CA00:00:00.00 215194   VOS-Cycles Gladiator
DNSTracy Muegge   Gold River, CA00:00:00.00 51637   Rio Strade - Sacramento
DNPSteve Showler   Carmichael, CA00:00:00.00 32554  886 Armstrong & Associates / FCI C
DNPChristopher Husing   Elk Grove, CA00:00:00.00 49804  887 Pacific Coast Cycling Club
DNPDaryl Parker   Sacramento, CA00:00:00.00 27253  889 Rocknasium

Men - Cat 3

 Place Points NameCity, StateTime USAC #BibTeam
1469.64Robert Meyer   Mountain View, CA00:00:00.00 255751  967 Metromint Cycling
2473.59Michael Ricks   Stockton, CA00:00:00.00 250319  981 Chico Corsa Cycling Team
3477.55Michael Egan   West Sacrametno, CA00:00:00.00 124893  959 Sacramento Golden Wheelmen
4481.50Toby Long   Oakland, CA00:00:00.00 262539  966 Kaiser Permanente / Team Oakla
5485.45Jeff Horner   Walnut Creek, CA00:00:00.00 219308  963 Wells Fargo Racing Team
6489.41Brian Johnston   San Francisco, CA00:00:00.00 237599  964 Kaiser Permanente/Team Oakland
7493.36Eric Hoffmann   San Francisco, CA00:00:00.00 219415  961 Touchstone Climbing
8497.31David Acri   San Francisco00:00:00.00 233803  983 Sportgenic/Squadra Ovest
9501.26Scott Herring   Sausalito, CA00:00:00.00 236346  975 Touchstone Climbing
10505.22Sam Benedict   Morgan Hill, CA00:00:00.00 194963  952 Specialized
11509.17Peter Montoya   Fresno, CA00:00:00.00 222038  968 SBR Steven's Bicycles Racing
12513.12Neil Bartley   San Jose, CA00:00:00.00 209268  951 Berkeley Bicycle Club (BBC)
13517.08Josh LaGrange   Bend, OR00:00:00.00 201330  965 Form Fitness
14521.03Nole Studley   Oakland, CA 251301  986 Team Roaring Mouse
15524.98Gabriel Byrne   Santa Cruz, CA00:00:00.00 178761  957 Sportgenic/Squadra Ovest
16528.94Lutz Braun   Clovis, CA00:00:00.00 258096  955 Central Valley Cycling
17532.89Louis Toba   Palo Alto, CA00:00:00.00 56384  974 Webcor Alto Velo
18536.84Ivo Foster   Fresno, CA00:00:00.00 237002  985 Stevens Bicycle Racing
19540.79Andrew Olson   Northfield, MN00:00:00.00 231333  969 Carleton College
20544.75Nathanael Christensen   Clements, CA00:00:00.00 239919  958 Delta Velo
21548.70Tony Homes   Danville, CA00:00:00.00 210572  962 Wells Fargo Racing Team
22552.65John Ormsby   Berkeley, CA00:00:00.00 219328  970 Touchstone Climbing
23556.61Ron Rouse   Sacramento, CA00:00:00.00 166249  972 Rio Strada Racing
24560.56Sean Smith   Oakland, CA00:00:00.00 204018  973 California Giant Strawberry
25564.51Erick Marcheschi   Morgan Hill, CA00:00:00.00 96065  977 Specialized
26568.47John Wooldridge   Alamo, CA00:00:00.00 38940  979 Wells Fargo Racing Team
27572.42Andrew Hammond   Morgan Hill, CA00:00:00.00 191844  960 SBCU
28576.37Kevin Rennie   Menlo Park, CA00:00:00.00 124208  971 Specialized
29580.32Demian Bigelow   Martinez, CA00:00:00.00 41709  953 Taleo Racing
30584.28John Cheetham   Pleasanton, CA00:00:00.00 202515  982 Metromint Cycling
31588.23Scott Butler   Columbia, MO00:00:00.00 106701  956 Pacific State Bank Cycling Tea
DNPJoshua Brand   Sacramento , CA00:00:00.00 209043  954 Kinetic Cycles
DNPScott Holz   Morgan Hill, CA00:00:00.00 99270  976 Specialized
DNPMark Petrucci   Santa Rosa, CA00:00:00.00 57790  978 unattached
DNPDave Garcia   Dublin, CA00:00:00.00 161627  980 InfoVista Cycling Team
DNPJoshua Carling   Rancho Cordova, CA00:00:00.00 234584  984 Pacific State Bank Cycling Tea

Men - Cat 3/4/5 - Master - 45-99

 Place Points NameCity, StateTime USAC #BibTeam
1436.61Matt Yaden   Danville, CA00:00:00.00 238250  347 Wells Fargo Racing Team
2440.17Kevin Willitts   S Lake Tahoe, CA00:00:00.00 192774  346 Garrison Institutional
3JOE MCCRUMMEN   00:00:00.00  322 
4447.31Gregory Pike   Salinas, CA00:00:00.00 158350  332 VOS Racing - Cycles Gladiator
5450.88Bill Nicely   San Ramon, CA00:00:00.00 215434  328 VOS-Cycles Gladiator
6454.44Kevin McMurtry   Nevada City, CA00:00:00.00 287169  323 SERT/Sho-Air
7458.01Mark Robertson   Oakland, CA00:00:00.00 237380  333 Taleo Racing
8461.58Steve Cooke   Carson City, NV00:00:00.00 286931  305 NA
9UNKNOWN RIDER   00:00:00.00  372 -------
10UNKNOWN RIDER   00:00:00.00  375 -------
11472.28Richard Coyle   Granite Bay, CA00:00:00.00 277158  306 Rio Strada Racing
12mike NISSEN   00:00:00.00  354 
13479.41Robert Nichols   Lockeford, CA00:00:00.00 255632  329 Pacific State Bank cycling te
14482.98Robert Napieralski   Springville, CA00:00:00.00 271499  327 Yokohl Ranch/SSC Racing Team
15486.55Martin Wolff   Carmel, CA00:00:00.00 203646  356 VOS-Cycles Gladiator
16490.12Fred Schnaars   Davis, CA00:00:00.00 65032  337 Davis Bike Club
17493.68Robert Goss   Folsom, CA00:00:00.00 289041  317 Rio Strada Racing
18497.25Christopher Cioni   Sacramento, CA00:00:00.00 66414  303 Sacramento Golden Wheelmen
19500.82Edward Lund   Fresno, CA00:00:00.00 276566  319 Steven's Bicycles Racing
20504.38Kevin Torbett   Walnut Creek, CA00:00:00.00 58379  371 Wells Fargo Racing Team
21507.95Tom Cutter   Carmichael, CA00:00:00.00 285993  309 fatcyclist.com
22jack KELSO   00:00:00.00  351 
24515.09Atac Tuli   Davis, CA00:00:00.00 277938  341 Davis Bike Club
25518.65Erim Taser   Lodi, CA00:00:00.00 205116  355 Pacific State Bank
26522.22Rick Feldstein   Napa, CA00:00:00.00 253122  359 Delta Velo
27Rick HAAK   00:00:00.00  360 
28529.36Garry Birch   Dublin, CA00:00:00.00 136971  300 Team Integrate / FFBC p/b Chip
29532.92GARY SPEER   Oroville, CA00:00:00.00 272940  339 Oxyfuel Racing
30536.49Rhys Rowland   Davis, CA00:00:00.00 216813  334 Davis Bike Club
31540.06Roger Von Rotz   Modesto, CA00:00:00.00 240458  344 VSRT/Livermore Cyclery
32543.63Mark Cusick   Elk Grove, CA00:00:00.00 205419  308 Rio Strada Racing
33547.19David Cranston   Malibu, CA00:00:00.00 272791  307 
34550.76Robert Fusco   Livermore, CA00:00:00.00 264855  314 VSRT/Livermore Cyclery
35Dave BRYANT   00:00:00.00  302 
36557.89Larry Upthegrove   Antioch, CA00:00:00.00 195417  357 International Christian Cyclin
37561.46Edward Gong   Stockton, CA00:00:00.00 13597  316 Pacific State Bank CyclingTeam
38565.03Christopher Bowlus   Davis, CA00:00:00.00 244782  301 Davis Bike Club
39568.60Steve Sprinkle   Austin, TX00:00:00.00 159240  340 
40572.16Peter Meyer   Mount Aukum, CA00:00:00.00 219925  324 Rio Strada Racing
41575.73Mark Nakamura   Pacifica, CA00:00:00.00 179927  326 Kaiser Permanente/Team Oakland
42579.30Michael Deusebio   Danville, CA00:00:00.00 9335  311 Morgan Stanley/Team Spine/Spec
43582.87Glenn Hammerson   Manteca, CA00:00:00.00 208644  361 VSRT/Livermore Cyclery
44586.43Brian Lewis   Lafayette, CA00:00:00.00 78134  318 Morgan Stanley/Team Spine/Spec
45590.00Jon Erickson   Forestville, CA00:00:00.00 293646  313 2 Wheel Racing
DNSGreg Omasch   00:00:00.00   
DNSTodd Doherty   Davis, CA00:00:00.00 9701   DAVIS BIKE CLUB
DNSGregory Moyer   Pleasanton, CA00:00:00.00 278755   IC3
DNSAlan Nielson   Dublin, CA00:00:00.00 236183   Wells Fargo Racing Team
DNSJohn Pauley   Redwood City, CA00:00:00.00 27452   Webcor/Alto Velo
DNSAlan Rowland   Davis, CA00:00:00.00 56017   Rocknasium
DNSSteven Schorer   Granite Bay, CA00:00:00.00 290547   Rio Strada Racing
DNSMark Vandenberghe   Lafayette, CA00:00:00.00 36393   Wells Fargo Racing Team
DNSRandy Volkmar   S Lake Tahoe, CA00:00:00.00 36779   Garrison Institutional
DNSscott wienker   Davis, CA00:00:00.00 290904   
DNSJohn Hansen   Danville, CA00:00:00.00 113380   wells fargo racing team
DNSbrad KUPCHANKO   00:00:00.00   
DNSmike NISSEN   00:00:00.00   
DNSMichael Zafer (Cat5)   Martinez, CA00:00:00.00 265254   
DNStodd ISAMAN   00:00:00.00   
DNPBruce Coffey   Newman, CA00:00:00.00 271696  304 SJBC/SugarCRM
DNPDouglas Gonda   Truckee, CA00:00:00.00 13594  315 Reno Wheelmen
DNPGilbert Martinez   Waxahachie, TX00:00:00.00 181301  320 RIO STRADA RACING
DNPRobert Mauldin   Elk Grove, CA00:00:00.00 267326  321 
DNPDarin Salk   Davis, CA00:00:00.00 272631  336 Davis Bike Club

Men - Cat 4/5

 Place Points NameCity, StateTime USAC #BibTeam
1529.44David Gingrich   Los Angeles, CA00:00:00.00 153637  227 Prolong Energy
2530.68Jonathan Teeter   Guerneville, CA00:00:00.00 291414  275 DBC
3531.91Jeromy Cottell   Redwood City, CA00:00:00.00 273912  219 Peninsula Velo / Pomodoro
4533.15David Carlson   Sacramento, CA00:00:00.00 286490  214 Davis Bike Club
5534.38Francisco Azevedo   Santa Rosa, CA00:00:00.00 219166  206 Sportgenic/Squadra Ovest
6535.62Paul Ngo   San Jose, CA00:00:00.00 275571  246 Team Roaring Mouse
7536.86Derek Milsaps   Vacaville, CA00:00:00.00 256020  243 Precision Bicycles
8538.09Andrew Alonis   Palo Alto, CA00:00:00.00 292239  202 
9539.33Rory Osbrink   Pleasanton, CA00:00:00.00 218676  250 Hawk Relay Cycling Team
10540.56Mike Gonzales   San Mateo, CA00:00:00.00 205006  228 Davis Bike Club
11541.80Ricardo Contreras   Panorama City, CA00:00:00.00 272584  218 UC Santa Cruz
12543.04Jason Arinno   Elk Grove, CA00:00:00.00 260928  203 Davis Bike Club
13544.27Stephen Wassather   Santa Cruz, CA00:00:00.00 269058  268 Rio Strada Racing
14545.51John Silva   Tracy, CA00:00:00.00 279299  263 CVC/Thirsty Bear
15546.74Matthew Batz   Campbell, CA00:00:00.00 103222  207 Webcor/Alto Velo
16547.98Michael Painter   Chico Ca00:00:00.00 289184  253 Chico Corsa Cycling Club
17549.21Scott Moore   Santa Cruz, CA00:00:00.00 256976  244 JRVS
18550.45Robert Orcutt   Scotts Valley, CA00:00:00.00 269340  248 Webcor / alto velo
19Hosea SHEPHERD   00:00:00.00  262 
20552.92Barrett Ausman   San Jose, CA00:00:00.00 186327  204 Webcor/Alto Velo
22554.16Ryan Malm   Sacramento, CA00:00:00.00 296229  240 
23555.39Mateo Ortega   Brisbane, CA00:00:00.00 255427  249 Team Roaring Mouse
24556.63Paulo Biazotti   Wheaton, IL00:00:00.00 288495  210 
25Matthew Koeing   00:00:00.00  276 
26559.10Patrick Gordon   Vacaville, CA00:00:00.00 290498  273 Team Precision
28560.34Stephen Grimes   Sacramento, CA00:00:00.00 261152  230 Davis Bike Club
29561.57Jason Brasel   Nashville, TN00:00:00.00 287349  211 Davis Bike Club
30562.81Jim Elam   Mustang, OK00:00:00.00 273123  223 Stocton
31564.05Garrett Otto   San Luis Obispo, CA00:00:00.00 270003  251 SLO Nexus - Gym One
32565.28Ray Carrier   Tracy, CA00:00:00.00 204769  215 Now Direct
33566.52Michael Zafer (1 - Cat5)   Martinez, CA00:00:00.00 265254  277 
35Eric Casares   00:00:00.00  221 Vapor
36568.99Michael Claudio   West Sacramento, CA00:00:00.00 248052  217 Davis Bike Club
37570.23Henry Mar   San Bruno, CA00:00:00.00 217433  226 Team Integrate/FFBC powered by
38571.46Jeffrey Weaver   Sacramento, CA00:00:00.00 290926  269 Davis Bike Club
39572.70Zachary Scioli (1 - Cat4)   San Francisco, CA00:00:00.00 295338  261 Organic Athlete
40573.93Zak Paillon   Sacramento, CA00:00:00.00 272054  252 Health is Wealth p/b Whole Foo
41575.17Carson Jeffres   Woodland, CA00:00:00.00 17726  235 Davis Bike Club
42576.40Matthew Triska   San Francisco, CA00:00:00.00 257229  266 Sportgenic/Squadra Ovest
43577.64James Allen   Danville, CA00:00:00.00 287305  201 Webcor/Alto Velo
44578.88Lloyd Ranola   Oakland, CA00:00:00.00 198425  259 Sportgenic/Squadra Ovest
45580.11Allen Brumm   Foster City, CA00:00:00.00 195431  213 Webcor/Alto Velo
46581.35Alcino Azevedo   Lakeside, CA00:00:00.00 276257  205 ACQUA AL 2/San Diego Bicycle C
47582.58Scott Wong (2 - Cat4)   Davis, CA00:00:00.00 256362  270 Davis Bike Club
48583.82Juan Raigoza   Redwood City, CA00:00:00.00 219477  258 Webcor / Alto Velo
49585.06Michele Feikert   Davis, CA00:00:00.00 286411  224 Davis Bike Club
50586.29Nicole Slaton   Davis, CA00:00:00.00 287914  264 Davis Bike Club
51587.53Michael Deza   Daly City, CA00:00:00.00 283359  220 
52588.76Ryan Johnson   San Francisco, CA00:00:00.00 288483  236 NA
53Greg Ovasch   00:00:00.00  216 
DNSZach Behrendt   00:00:00.00   
DNSMalcolm Brown (Cat5)   Redwood City, CA00:00:00.00 287378   
DNSJosh Felder   Menlo Park, CA00:00:00.00 292894   Form Fitness
DNSRuss Haswell   Woodbridge, CA00:00:00.00 225590   Delta Velo
DNSAlan Nevin   Tracy, CA00:00:00.00 295013   ThirstyBear/Castro Valley Cycl
DNSMichael Norris   San Francisco, CA00:00:00.00 156881   Team Roaring Mouse
DNSSamuel Parker   San Francisco, CA00:00:00.00 88610   Team Roaring Mouse
DNSEric Peterson   Sacramento, CA00:00:00.00 165593   Eric Peterson
DNSIvan Poddubnyy   San Jose, CA00:00:00.00 266310   Webcor/AltoVelo
DNSGuy Van Natta   Clovis, CA00:00:00.00 218823   Central Valley Cycling
DNSDevin Avery   Rancho Cordova, CA00:00:00.00 252381   BEER
DNSStephen Blakemore   Turlock, CA00:00:00.00 79937   InfoVista Cycling Team
DNSEric Casares   Clovis, CA00:00:00.00 258451   Vapor Racing
DNSDavid Doll   Merced, CA00:00:00.00 281768   Stanislaus/Merlock Velo
DNSIan Hoffman   Fresno, CA00:00:00.00 271128   CVC
DNSBrent Majors   Clovis, CA00:00:00.00 286527   Rubber Soul/CSC racing Team
DNSRick HAAK   00:00:00.00   
DNPSaeed Abedi   Mountain View, CA00:00:00.00 172270  200 Webcor/ Alto Velo
DNPNathan Beltran   Union City, CA00:00:00.00 286533  208 East Bay Cyclist
DNPRenzo Bernales   Sacramento, CA00:00:00.00 76203  209 Team City Sacramento
DNPAaron McDonald   Santacruz, CA00:00:00.00 293586  212 Unattached
DNPTravis Dubose   Houston00:00:00.00 285589  222 Webcore/Alto Velo
DNPJames Good   Oakland, CA00:00:00.00 254097  229 Taleo Racing
DNPPJ Isaman   00:00:00.00  231 
DNPSunny Sandhu   Fresno, CA00:00:00.00 271787  233 Central Valley Cycling
DNPRaleigh Kay (Cat4)   Tracy, CA00:00:00.00 209395  237 ThirstyBear/CVC/Barlata/3RingC
DNPAdam Lucero   Santa Cruz, CA00:00:00.00 257679  238 UC Santa Cruz Cycling
DNPTodd McIntyre (Cat4)   Davis, CA00:00:00.00 228779  242 Davis Bike Club
DNPJeffrey Palileo   American Canyon, CA00:00:00.00 224717  254 Sportgenic/Squadra Ovest
DNPScott Sommerfeld   Manteca, CA00:00:00.00 288687  265 
DNPMatt Abdalah   Los Altos, CA00:00:00.00 224627  271 SugarCRM/SJBC
DNPquoc bao huynh (Cat4)   Stockton, CA00:00:00.00 272597  274 delta velo
DNFTreighton Mauldin (Cat4)   Elk Grove, CAAuburn 267395  241 Victory Velo

Report missing or incorrect license numbers

Volkswagen
Bonk BreakerUSACDFShimanoSierra NevadaSpy
UCI USA Cycling is the official governing body for all disciplines of competitive cycling in the United States. The 501c3, membership-based organization aims both to achieve sustained success in international cycling competition and to grow competitive cycling in America while delivering an exceptional customer experience.
View Children's Online Privacy Protection Policy
US Olympic Committee